createdAt,value
2016-03-30T16:58:26.787Z,64
2016-03-30T16:59:26.759Z,60
2016-03-30T17:00:26.683Z,64
2016-03-30T17:01:26.654Z,68
2016-03-30T17:02:26.596Z,80
2016-03-30T17:03:26.520Z,72
2016-03-30T17:04:26.507Z,72
2016-03-30T17:17:45.870Z,128
2016-03-30T17:18:48.998Z,108
2016-03-30T17:19:45.797Z,128
2016-03-30T17:20:45.706Z,92
2016-03-30T17:21:45.864Z,240
2016-03-30T17:22:45.664Z,280
2016-03-30T17:23:45.417Z,284
2016-03-30T17:24:48.747Z,288
2016-03-30T17:25:51.688Z,284
2016-03-30T17:26:48.441Z,284
2016-03-30T17:27:48.380Z,292
2016-03-30T17:28:49.790Z,292
2016-03-30T17:29:54.324Z,280
2016-03-30T17:30:51.701Z,288
2016-03-30T17:31:51.594Z,292
2016-03-30T17:32:54.144Z,292
2016-03-30T17:33:51.507Z,296
2016-03-30T17:34:45.056Z,296
2016-03-30T17:35:48.230Z,268
2016-03-30T17:36:47.999Z,296
2016-03-30T17:37:51.345Z,300
2016-03-30T17:38:44.879Z,296
2016-03-30T17:39:45.257Z,296
2016-03-30T17:40:47.900Z,292
2016-03-30T17:41:47.778Z,292
2016-03-30T17:42:47.937Z,292
2016-03-30T17:43:50.673Z,292
2016-03-30T17:44:44.598Z,288
2016-03-30T17:45:44.804Z,296
2016-03-30T17:46:50.916Z,292
2016-03-30T17:47:47.498Z,300
2016-03-30T17:48:44.437Z,296
2016-03-30T17:49:47.612Z,292
2016-03-30T17:50:50.365Z,296
2016-03-30T17:51:50.353Z,296
2016-03-30T17:52:44.323Z,296
2016-03-30T17:53:53.279Z,296
2016-03-30T17:54:44.189Z,296
2016-03-30T17:55:44.159Z,296
2016-03-30T17:56:47.147Z,296
2016-03-30T17:57:44.275Z,292
2016-03-30T17:58:44.027Z,292
2016-03-30T17:59:46.983Z,288
2016-03-30T18:00:46.938Z,292
2016-03-30T18:01:43.879Z,292
2016-03-30T18:02:43.835Z,296
2016-03-30T18:03:50.009Z,296
2016-03-30T18:04:43.777Z,300
2016-03-30T18:05:43.904Z,296
2016-03-30T18:06:43.752Z,292
2016-03-30T18:07:43.619Z,292
2016-03-30T18:08:46.778Z,292
2016-03-30T18:09:46.780Z,292
2016-03-30T18:10:52.487Z,296
2016-03-30T18:11:52.474Z,296
2016-03-30T18:12:43.414Z,292
2016-03-30T18:13:43.416Z,292
2016-03-30T18:14:49.669Z,292
2016-03-30T18:15:46.265Z,292
2016-03-30T18:16:46.441Z,292
2016-03-30T18:17:49.740Z,292
2016-03-30T18:18:43.134Z,292
2016-03-30T18:19:43.215Z,292
2016-03-30T18:20:46.108Z,296
2016-03-30T18:21:49.048Z,292
2016-03-30T18:22:46.176Z,292
2016-03-30T18:23:45.991Z,296
2016-03-30T18:24:48.868Z,296
2016-03-30T18:25:42.887Z,296
2016-03-30T18:26:42.859Z,296
2016-03-30T18:27:45.845Z,296
2016-03-30T18:28:42.754Z,300
2016-03-30T18:29:42.975Z,296
2016-03-30T18:30:42.634Z,292
2016-03-30T18:31:42.589Z,292
2016-03-30T18:32:45.467Z,296
2016-03-30T18:33:42.517Z,296
2016-03-30T18:34:48.457Z,296
2016-03-30T18:35:48.414Z,296
2016-03-30T18:36:45.369Z,292
2016-03-30T18:37:42.356Z,296
2016-03-30T18:38:45.297Z,296
2016-03-30T18:39:45.440Z,296
2016-03-30T18:40:42.396Z,296
2016-03-30T18:41:42.164Z,296
2016-03-30T18:42:42.104Z,296
2016-03-30T18:43:42.107Z,296
2016-03-30T18:44:45.235Z,300
2016-03-30T18:45:41.971Z,300
2016-03-30T18:46:42.162Z,296
2016-03-30T18:47:41.962Z,296
2016-03-30T18:48:42.104Z,296
2016-03-30T18:49:47.873Z,296
2016-03-30T18:50:42.813Z,300
2016-03-30T18:51:44.723Z,300
2016-03-30T18:52:41.771Z,300
2016-03-30T18:53:45.306Z,296
2016-03-30T18:54:42.231Z,300
2016-03-30T18:55:41.562Z,296
2016-03-30T18:56:44.564Z,300
2016-03-30T18:57:41.504Z,300
2016-03-30T18:58:47.773Z,296
2016-03-30T18:59:41.431Z,300
2016-03-30T19:00:41.387Z,296
2016-03-30T19:01:41.328Z,296
2016-03-30T19:02:44.502Z,300
2016-03-30T19:03:47.473Z,296
2016-03-30T19:04:44.070Z,300
2016-03-30T19:05:41.197Z,300
2016-03-30T19:06:41.341Z,296
2016-03-30T19:07:41.062Z,300
2016-03-30T19:08:41.065Z,296
2016-03-30T19:09:44.458Z,296
2016-03-30T19:10:40.945Z,296
2016-03-30T19:11:41.105Z,296
2016-03-30T19:12:40.904Z,296
2016-03-30T19:13:40.875Z,300
2016-03-30T19:14:41.002Z,296
2016-03-30T19:15:40.990Z,296
2016-03-30T19:16:40.679Z,296
2016-03-30T19:17:40.651Z,296
2016-03-30T19:18:40.607Z,296
2016-03-30T19:19:40.577Z,300
2016-03-30T19:20:40.434Z,300
2016-03-30T19:21:43.321Z,296
2016-03-30T19:22:40.428Z,296
2016-03-30T19:23:46.128Z,292
2016-03-30T19:24:39.992Z,296
2016-03-30T19:25:39.955Z,0
2016-03-30T19:26:40.088Z,0
2016-03-30T19:27:42.849Z,0
2016-03-30T19:28:39.749Z,0
2016-03-30T19:29:39.673Z,0
2016-03-30T19:30:39.698Z,0
2016-03-30T19:31:39.614Z,0
2016-03-30T19:32:42.560Z,0
2016-03-30T19:33:45.492Z,0
2016-03-30T19:34:45.443Z,0
2016-03-30T19:35:42.505Z,0
2016-03-30T19:36:39.395Z,0
2016-03-30T19:37:42.644Z,0
2016-03-30T19:38:39.300Z,0
2016-03-30T19:39:45.458Z,0
2016-03-30T19:40:48.224Z,0
2016-03-30T19:41:51.586Z,0
2016-03-30T19:42:42.118Z,0
2016-03-30T19:43:45.339Z,0
2016-03-30T19:44:42.403Z,0
2016-03-30T19:45:38.999Z,0
2016-03-30T19:46:41.955Z,0
2016-03-30T19:47:47.926Z,0
2016-03-30T19:48:41.834Z,0
2016-03-30T19:49:39.009Z,0
2016-03-30T19:50:41.964Z,0
2016-03-30T19:51:38.920Z,0
2016-03-30T19:52:39.172Z,0
2016-03-30T19:53:38.627Z,0
2016-03-30T19:54:38.630Z,0
2016-03-30T19:55:44.555Z,0
2016-03-30T19:56:38.697Z,0
2016-03-30T19:57:41.653Z,0
2016-03-30T19:58:41.453Z,0
2016-03-30T19:59:41.393Z,0
2016-03-30T20:00:38.551Z,0
2016-03-30T20:01:38.508Z,0
2016-03-30T20:02:38.292Z,0
2016-03-30T20:03:38.904Z,0
2016-03-30T20:04:38.187Z,0
2016-03-30T20:05:41.440Z,0
2016-03-30T20:06:38.115Z,0
2016-03-30T20:07:37.966Z,0
2016-03-30T20:08:38.031Z,0
2016-03-30T20:09:41.425Z,0
2016-03-30T20:10:40.943Z,0
2016-03-30T20:11:37.946Z,0
2016-03-30T20:12:41.058Z,0
2016-03-30T20:13:37.827Z,0
2016-03-30T20:14:37.736Z,0
2016-03-30T20:15:37.769Z,0
2016-03-30T20:16:37.646Z,0
2016-03-30T20:17:37.649Z,0
2016-03-30T20:18:37.558Z,0
2016-03-30T20:19:43.577Z,0
2016-03-30T20:20:40.721Z,0
2016-03-30T20:21:37.457Z,0
2016-03-30T20:22:37.601Z,0
2016-03-30T20:23:43.416Z,0
2016-03-30T20:24:43.575Z,0
2016-03-30T20:25:37.297Z,0
2016-03-30T20:26:46.299Z,0
2016-03-30T20:27:40.255Z,0
2016-03-30T20:28:40.414Z,0
2016-03-30T20:29:49.151Z,0
2016-03-30T20:30:40.482Z,0
2016-03-30T20:31:40.312Z,0
2016-03-30T20:32:37.003Z,0
2016-03-30T20:33:40.193Z,0
2016-03-30T20:34:39.898Z,0
2016-03-30T20:35:36.901Z,0
2016-03-30T20:36:39.842Z,0
2016-03-30T20:37:39.798Z,0
2016-03-30T20:38:42.753Z,0
2016-03-30T20:39:36.694Z,0
2016-03-30T20:40:36.665Z,0
2016-03-30T20:41:39.636Z,0
2016-03-30T20:42:36.545Z,0
2016-03-30T20:43:39.547Z,0
2016-03-30T20:44:42.551Z,0
2016-03-30T20:45:36.663Z,0
2016-03-30T20:46:39.399Z,0
2016-03-30T20:47:39.371Z,0
2016-03-30T20:48:36.562Z,0
2016-03-30T20:49:36.267Z,0
2016-03-30T20:50:36.255Z,0
2016-03-30T20:51:36.179Z,0
2016-03-30T20:52:36.135Z,0
2016-03-30T20:53:36.122Z,0
2016-03-30T20:54:36.063Z,0
2016-03-30T20:55:36.033Z,0
2016-03-30T20:56:36.177Z,0
2016-03-30T20:57:36.148Z,0
2016-03-30T20:58:35.917Z,0
2016-03-30T20:59:35.874Z,0
2016-03-30T21:00:41.813Z,0
2016-03-30T21:01:35.769Z,0
2016-03-30T21:02:39.037Z,0
2016-03-30T21:03:41.696Z,0
2016-03-30T21:04:41.699Z,0
2016-03-30T21:05:38.592Z,0
2016-03-30T21:06:38.596Z,0
2016-03-30T21:07:38.691Z,0
2016-03-30T21:08:38.773Z,0
2016-03-30T21:09:41.464Z,0
2016-03-30T21:10:35.404Z,0
2016-03-30T21:11:41.344Z,0
2016-03-30T21:12:35.328Z,0
2016-03-30T21:13:41.302Z,0
2016-03-30T21:14:35.224Z,0
2016-03-30T21:15:35.180Z,0
2016-03-30T21:16:35.151Z,0
2016-03-30T21:17:35.139Z,0
2016-03-30T21:18:35.438Z,0
2016-03-30T21:19:38.082Z,0
2016-03-30T21:20:34.975Z,0
2016-03-30T21:21:37.993Z,0
2016-03-30T21:22:37.918Z,0
2016-03-30T21:23:37.842Z,0
2016-03-30T21:24:34.815Z,0
2016-03-30T21:25:37.801Z,0
2016-03-30T21:26:37.726Z,0
2016-03-30T21:27:37.666Z,0
2016-03-30T21:28:34.684Z,0
2016-03-30T21:29:37.593Z,0
2016-03-30T21:30:34.612Z,0
2016-03-30T21:31:34.692Z,0
2016-03-30T21:32:34.461Z,0
2016-03-30T21:33:34.479Z,0
2016-03-30T21:34:37.763Z,0
2016-03-30T21:35:34.765Z,0
2016-03-30T21:36:34.300Z,0
2016-03-30T21:37:37.225Z,0
2016-03-30T21:38:34.180Z,0
2016-03-30T21:39:34.214Z,0
2016-03-30T21:40:34.310Z,0
2016-03-30T21:41:34.078Z,0
2016-03-30T21:42:34.066Z,0
2016-03-30T21:43:34.053Z,0
2016-03-30T21:44:33.946Z,0
2016-03-30T21:45:34.496Z,0
2016-03-30T21:46:34.061Z,0
2016-03-30T21:47:33.797Z,0
2016-03-30T21:48:36.675Z,0
2016-03-30T21:49:33.741Z,0
2016-03-30T21:50:33.712Z,0
2016-03-30T21:51:33.637Z,0
2016-03-30T21:52:33.655Z,0
2016-03-30T21:53:33.751Z,0
2016-03-30T21:54:36.974Z,0
2016-03-30T21:55:36.679Z,0
2016-03-30T21:56:33.478Z,0
2016-03-30T21:57:36.404Z,0
2016-03-30T21:58:33.374Z,0
2016-03-30T21:59:33.548Z,0
2016-03-30T22:00:33.255Z,0
2016-03-30T22:01:36.210Z,0
2016-03-30T22:02:33.401Z,0
2016-03-30T22:03:33.185Z,0
2016-03-30T22:04:33.125Z,0
2016-03-30T22:05:33.299Z,0
2016-03-30T22:06:33.006Z,0
2016-03-30T22:07:33.180Z,0
2016-03-30T22:08:32.963Z,0
2016-03-30T22:09:35.936Z,0
2016-03-30T22:10:32.844Z,0
2016-03-30T22:11:37.253Z,0
2016-03-30T22:12:32.772Z,0
2016-03-30T22:13:32.711Z,0
2016-03-30T22:14:32.714Z,0
2016-03-30T22:15:32.842Z,0
2016-03-30T22:16:32.610Z,0
2016-03-30T22:17:32.550Z,0
2016-03-30T22:18:32.538Z,0
2016-03-30T22:19:32.462Z,0
2016-03-30T22:20:35.497Z,0
2016-03-30T22:21:32.436Z,0
2016-03-30T22:22:32.438Z,0
2016-03-30T22:23:32.316Z,0
2016-03-30T22:24:32.304Z,0
2016-03-30T22:25:32.493Z,0
2016-03-30T22:26:35.246Z,0
2016-03-30T22:27:32.420Z,0
2016-03-30T22:28:32.079Z,0
2016-03-30T22:29:35.285Z,0
2016-03-30T22:30:35.070Z,0
2016-03-30T22:31:32.634Z,0
2016-03-30T22:32:38.122Z,0
2016-03-30T22:33:35.406Z,0
2016-03-30T22:34:31.845Z,0
2016-03-30T22:35:32.005Z,0
2016-03-30T22:36:31.742Z,0
2016-03-30T22:37:35.244Z,0
2016-03-30T22:38:37.872Z,0
2016-03-30T22:39:31.641Z,0
2016-03-30T22:40:31.861Z,0
2016-03-30T22:41:31.552Z,0
2016-03-30T22:42:31.695Z,0
2016-03-30T22:43:31.730Z,0
2016-03-30T22:44:35.497Z,0
2016-03-30T22:45:34.453Z,0
2016-03-30T22:46:34.550Z,0
2016-03-30T22:47:34.303Z,0
2016-03-30T22:48:31.524Z,0
2016-03-30T22:49:31.371Z,0
2016-03-30T22:50:37.155Z,0
2016-03-30T22:51:34.408Z,0
2016-03-30T22:52:43.097Z,0
2016-03-30T22:53:40.054Z,0
2016-03-30T22:54:34.416Z,0
2016-03-30T22:55:30.965Z,0
2016-03-30T22:56:33.874Z,0
2016-03-30T22:57:33.908Z,0
2016-03-30T22:58:36.801Z,0
2016-03-30T22:59:33.757Z,0
2016-03-30T23:00:34.229Z,0
2016-03-30T23:01:33.684Z,0
2016-03-30T23:02:30.671Z,0
2016-03-30T23:03:30.565Z,0
2016-03-30T23:04:33.567Z,0
2016-03-30T23:05:33.508Z,0
2016-03-30T23:06:30.573Z,0
2016-03-30T23:07:30.392Z,0
2016-03-30T23:08:30.395Z,0
2016-03-30T23:09:30.320Z,0
2016-03-30T23:10:36.291Z,0
2016-03-30T23:11:33.467Z,0
2016-03-30T23:12:39.203Z,0
2016-03-30T23:13:36.268Z,0
2016-03-30T23:14:36.100Z,0
2016-03-30T23:15:35.961Z,0
2016-03-30T23:16:30.230Z,0
2016-03-30T23:17:33.060Z,0
2016-03-30T23:18:30.157Z,0
2016-03-30T23:19:29.894Z,0
2016-03-30T23:20:39.069Z,0
2016-03-30T23:21:30.227Z,0
2016-03-30T23:22:32.776Z,0
2016-03-30T23:23:29.718Z,0
2016-03-30T23:24:29.720Z,0
2016-03-30T23:25:35.941Z,0
2016-03-30T23:26:29.631Z,0
2016-03-30T23:27:32.556Z,0
2016-03-30T23:28:32.762Z,0
2016-03-30T23:29:33.030Z,0
2016-03-30T23:30:29.439Z,0
2016-03-30T23:31:29.395Z,0
2016-03-30T23:32:32.413Z,0
2016-03-30T23:33:29.776Z,0
2016-03-30T23:34:29.262Z,0
2016-03-30T23:35:29.217Z,0
2016-03-30T23:36:29.159Z,0
2016-03-30T23:37:29.145Z,0
2016-03-30T23:38:29.383Z,0
2016-03-30T23:39:29.495Z,0
2016-03-30T23:40:28.856Z,0
2016-03-30T23:41:28.969Z,0
2016-03-30T23:42:34.909Z,0
2016-03-30T23:43:31.896Z,0
2016-03-30T23:44:31.820Z,0
2016-03-30T23:45:31.776Z,0
2016-03-30T23:46:34.747Z,0
2016-03-30T23:47:28.688Z,0
2016-03-30T23:48:31.660Z,0
2016-03-30T23:49:31.802Z,0
2016-03-30T23:50:29.055Z,0
2016-03-30T23:51:31.714Z,0
2016-03-30T23:52:28.857Z,0
2016-03-30T23:53:28.469Z,0
2016-03-30T23:54:31.426Z,0
2016-03-30T23:55:28.537Z,0
2016-03-30T23:56:34.619Z,0
2016-03-30T23:57:43.277Z,0
2016-03-30T23:58:34.249Z,0
2016-03-30T23:59:31.376Z,0
